Time;durP1;ratioP1;P1;durP2;ratioP2;P2;SDS_P1;SDS_P2;PMS_P1;PMS_P2;Temp;Humidity;BMP_temperature;BMP_pressure;BME280_temperature;BME280_humidity;BME280_pressure;Samples;Min_cycle;Max_cycle;Signal;HPM_P1;HPM_P2
2023/09/10 00:00:42;;;;;;;3.63;1.93;;;14.80;48.30;;;;;;4936590;29;20181;-74
2023/09/10 00:03:09;;;;;;;3.47;1.50;;;15.10;48.30;;;;;;4937798;29;20193;-74
2023/09/10 00:05:37;;;;;;;3.27;1.67;;;15.20;47.70;;;;;;4933208;29;20196;-74
2023/09/10 00:08:05;;;;;;;4.17;1.87;;;15.20;47.70;;;;;;4934246;29;20227;-72
2023/09/10 00:10:32;;;;;;;4.27;1.60;;;15.20;47.70;;;;;;4933306;29;20271;-74
2023/09/10 00:13:00;;;;;;;4.77;1.50;;;15.40;47.00;;;;;;4917984;29;20653;-73
2023/09/10 00:15:27;;;;;;;5.83;1.93;;;15.50;47.00;;;;;;4935558;29;20187;-74
2023/09/10 00:17:55;;;;;;;4.60;1.60;;;15.70;46.90;;;;;;4936483;29;20188;-74
2023/09/10 00:20:22;;;;;;;4.43;1.70;;;15.70;46.30;;;;;;4932834;29;20189;-75
2023/09/10 00:22:49;;;;;;;3.77;1.63;;;15.90;46.20;;;;;;4943015;29;20690;-74
2023/09/10 00:25:17;;;;;;;6.10;1.63;;;15.90;46.00;;;;;;4935238;29;20689;-74
2023/09/10 00:27:44;;;;;;;3.43;1.50;;;15.90;45.40;;;;;;4935919;29;20180;-73
2023/09/10 00:30:12;;;;;;;5.70;2.00;;;16.10;45.60;;;;;;4934389;29;20200;-73
2023/09/10 00:32:40;;;;;;;2.13;1.40;;;16.10;44.50;;;;;;4926063;29;20634;-75
2023/09/10 00:35:08;;;;;;;2.70;1.57;;;16.00;45.10;;;;;;4936112;29;20246;-74
2023/09/10 00:37:35;;;;;;;5.37;2.10;;;16.20;44.30;;;;;;4935131;29;20329;-73
2023/09/10 00:40:04;;;;;;;3.63;1.53;;;16.30;44.70;;;;;;4933264;29;20208;-73
2023/09/10 00:42:31;;;;;;;3.90;1.60;;;16.40;43.70;;;;;;4935892;29;20651;-73
2023/09/10 00:44:59;;;;;;;2.63;1.50;;;16.60;44.00;;;;;;4934066;29;20237;-74
2023/09/10 00:47:27;;;;;;;3.93;1.63;;;16.50;43.60;;;;;;4936565;29;20197;-75
2023/09/10 00:49:55;;;;;;;7.07;5.23;;;16.50;44.00;;;;;;4933763;29;20219;-74
2023/09/10 00:52:27;;;;;;;4.70;1.57;;;16.50;44.30;;;;;;4933366;29;20182;-74
2023/09/10 00:54:55;;;;;;;5.53;1.83;;;16.70;44.00;;;;;;4934707;29;20211;-72
2023/09/10 00:57:23;;;;;;;5.70;1.60;;;16.70;43.00;;;;;;4929776;29;20187;-74
2023/09/10 00:59:50;;;;;;;4.47;1.80;;;16.80;43.20;;;;;;4930104;29;20175;-73
2023/09/10 01:02:20;;;;;;;3.30;1.40;;;17.00;43.70;;;;;;4935278;29;20239;-73
2023/09/10 01:04:47;;;;;;;6.00;1.50;;;17.30;42.20;;;;;;4935125;29;20556;-71
2023/09/10 01:07:14;;;;;;;4.43;1.60;;;17.10;41.30;;;;;;4934971;29;20186;-73
2023/09/10 01:09:42;;;;;;;4.50;1.40;;;16.90;41.20;;;;;;4934800;29;20309;-72
2023/09/10 01:12:44;;;;;;;3.53;1.40;;;17.20;41.20;;;;;;4934110;29;20193;-72
2023/09/10 01:15:30;;;;;;;5.03;1.57;;;17.60;40.10;;;;;;4932699;29;20353;-72
2023/09/10 01:18:21;;;;;;;4.93;1.50;;;17.60;40.80;;;;;;4934930;29;20677;-72
2023/09/10 01:21:19;;;;;;;4.97;1.83;;;17.70;41.00;;;;;;4935204;29;20188;-74
2023/09/10 01:24:29;;;;;;;3.07;1.40;;;17.70;40.90;;;;;;4930457;29;20192;-71
2023/09/10 01:26:59;;;;;;;6.10;1.53;;;17.90;39.20;;;;;;4913360;29;20722;-73
2023/09/10 01:29:26;;;;;;;2.30;1.53;;;18.00;38.30;;;;;;4935213;29;20219;-72
2023/09/10 01:32:00;;;;;;;6.30;1.53;;;18.00;38.60;;;;;;4928618;29;20192;-74
2023/09/10 01:34:34;;;;;;;4.83;1.53;;;17.80;38.50;;;;;;4933899;29;20622;-73
2023/09/10 01:37:33;;;;;;;2.83;1.43;;;17.80;38.10;;;;;;4933744;29;20184;-73
2023/09/10 01:40:06;;;;;;;2.50;1.03;;;18.10;37.30;;;;;;4907708;29;20193;-71
2023/09/10 01:42:36;;;;;;;2.37;1.20;;;18.10;36.30;;;;;;4934310;29;20545;-74
2023/09/10 01:45:05;;;;;;;2.67;1.37;;;18.40;37.40;;;;;;4929512;29;20197;-75
2023/09/10 01:47:33;;;;;;;2.60;1.20;;;18.20;36.40;;;;;;4934998;29;20191;-71
2023/09/10 01:50:00;;;;;;;3.87;1.63;;;18.30;36.40;;;;;;4930029;29;20642;-74
2023/09/10 01:52:28;;;;;;;3.27;1.40;;;18.50;35.80;;;;;;4925725;29;21421;-74
2023/09/10 01:54:55;;;;;;;2.43;1.23;;;18.70;36.10;;;;;;4933336;29;20188;-75
2023/09/10 01:57:22;;;;;;;2.30;1.27;;;19.00;35.00;;;;;;4932190;29;20200;-75
2023/09/10 01:59:50;;;;;;;3.60;1.63;;;19.10;35.10;;;;;;4934584;29;20203;-73
2023/09/10 02:02:18;;;;;;;2.80;1.10;;;18.90;34.80;;;;;;4934903;29;20526;-75
2023/09/10 02:04:45;;;;;;;4.17;1.27;;;19.10;35.10;;;;;;4931680;29;20218;-73
2023/09/10 02:07:12;;;;;;;2.27;1.13;;;18.80;35.20;;;;;;4933071;29;20239;-74
2023/09/10 02:09:40;;;;;;;2.60;1.00;;;19.30;34.50;;;;;;4932289;29;20228;-75
2023/09/10 02:12:07;;;;;;;5.63;1.37;;;19.40;32.90;;;;;;4926567;29;20185;-73
2023/09/10 02:14:34;;;;;;;2.83;1.10;;;19.60;32.90;;;;;;4934189;29;20192;-73
2023/09/10 02:17:02;;;;;;;3.70;1.10;;;19.50;33.30;;;;;;4936532;29;20191;-74
2023/09/10 02:19:29;;;;;;;3.00;1.20;;;19.70;33.30;;;;;;4934027;29;20192;-73
2023/09/10 02:21:57;;;;;;;3.17;1.07;;;19.80;33.10;;;;;;4933471;29;20188;-74
2023/09/10 02:24:24;;;;;;;2.57;1.30;;;20.20;32.90;;;;;;4933734;29;20195;-74
2023/09/10 02:26:52;;;;;;;3.27;1.20;;;20.40;32.20;;;;;;4933812;29;20196;-75
2023/09/10 02:29:19;;;;;;;3.60;1.50;;;20.70;31.90;;;;;;4932460;29;20226;-74
2023/09/10 02:31:46;;;;;;;4.57;1.17;;;20.60;31.60;;;;;;4932763;29;20193;-74
2023/09/10 02:34:13;;;;;;;2.97;1.30;;;20.20;32.10;;;;;;4929942;29;20303;-74
2023/09/10 02:36:41;;;;;;;2.80;1.20;;;20.60;31.60;;;;;;4933761;29;20196;-73
2023/09/10 02:39:08;;;;;;;2.20;1.03;;;20.80;31.80;;;;;;4933483;29;20200;-73
2023/09/10 02:41:35;;;;;;;3.10;1.03;;;20.80;30.60;;;;;;4929891;29;20198;-74
2023/09/10 02:44:03;;;;;;;6.20;3.37;;;20.50;31.20;;;;;;4933349;29;20584;-74
2023/09/10 02:46:30;;;;;;;4.90;3.87;;;20.80;31.10;;;;;;4930308;29;20215;-73
2023/09/10 02:48:58;;;;;;;16.43;12.93;;;21.30;29.80;;;;;;4931568;29;20228;-75
2023/09/10 02:51:27;;;;;;;3.90;1.50;;;21.80;30.50;;;;;;4929129;29;20555;-72
2023/09/10 02:53:55;;;;;;;1.77;1.00;;;22.30;28.40;;;;;;4928677;29;20195;-71
2023/09/10 02:56:22;;;;;;;3.13;1.33;;;21.90;28.70;;;;;;4930137;29;20203;-70
2023/09/10 02:58:49;;;;;;;4.27;1.20;;;21.90;29.20;;;;;;4930474;29;20187;-73
2023/09/10 03:01:17;;;;;;;3.67;1.30;;;21.40;29.80;;;;;;4931995;29;20651;-73
2023/09/10 03:03:44;;;;;;;3.90;1.17;;;21.10;29.80;;;;;;4936387;29;20183;-73
2023/09/10 03:06:13;;;;;;;2.43;1.03;;;21.30;29.60;;;;;;4936235;29;20184;-73
2023/09/10 03:08:42;;;;;;;3.10;1.07;;;22.10;28.70;;;;;;4932074;29;20215;-74
2023/09/10 03:11:10;;;;;;;3.90;1.43;;;22.00;28.90;;;;;;4935923;29;20210;-71
2023/09/10 03:13:37;;;;;;;4.37;1.40;;;21.50;28.90;;;;;;4936845;29;20187;-69
2023/09/10 03:16:05;;;;;;;1.73;1.03;;;21.40;29.40;;;;;;4933951;29;20196;-72
2023/09/10 03:18:32;;;;;;;3.93;1.30;;;21.60;29.20;;;;;;4931817;29;20211;-73
2023/09/10 03:21:03;;;;;;;3.23;1.37;;;21.30;29.80;;;;;;4935035;29;20210;-74
2023/09/10 03:23:30;;;;;;;2.97;1.10;;;21.90;28.90;;;;;;4936105;29;20192;-73
2023/09/10 03:25:57;;;;;;;2.97;1.40;;;21.90;28.90;;;;;;4935528;29;20199;-73
2023/09/10 03:28:25;;;;;;;4.43;1.63;;;22.50;28.80;;;;;;4933813;29;20219;-74
2023/09/10 03:30:57;;;;;;;2.73;1.17;;;22.80;28.90;;;;;;4935393;29;20184;-72
2023/09/10 03:33:25;;;;;;;6.53;2.03;;;22.30;28.40;;;;;;4930619;29;20937;-73
2023/09/10 03:35:52;;;;;;;8.30;1.50;;;21.80;31.50;;;;;;4935174;29;20242;-74
2023/09/10 03:38:19;;;;;;;4.37;1.50;;;22.20;32.20;;;;;;4933784;29;20232;-74
2023/09/10 03:40:46;;;;;;;5.17;2.53;;;22.70;31.50;;;;;;4931990;29;20187;-74
2023/09/10 03:43:14;;;;;;;5.10;1.80;;;22.20;32.80;;;;;;4931865;29;20710;-74
2023/09/10 03:45:42;;;;;;;7.10;1.87;;;23.20;31.50;;;;;;4931949;29;20199;-72
2023/09/10 03:48:13;;;;;;;2.90;1.43;;;23.50;30.70;;;;;;4934668;29;20235;-74
2023/09/10 03:50:40;;;;;;;4.97;1.77;;;23.70;30.40;;;;;;4935044;29;20210;-74
2023/09/10 03:53:07;;;;;;;8.77;2.30;;;23.30;31.80;;;;;;4935058;29;20190;-74
2023/09/10 03:55:35;;;;;;;6.00;1.73;;;23.10;31.80;;;;;;4934561;29;20594;-73
2023/09/10 03:58:02;;;;;;;7.33;1.90;;;22.40;33.10;;;;;;4934820;29;20188;-73
2023/09/10 04:00:30;;;;;;;6.40;1.90;;;22.40;33.10;;;;;;4937558;29;20199;-73
2023/09/10 04:02:57;;;;;;;6.00;1.63;;;22.70;32.50;;;;;;4935962;29;20191;-73
2023/09/10 04:05:25;;;;;;;4.43;1.57;;;22.80;33.20;;;;;;4935083;29;20184;-74
2023/09/10 04:07:52;;;;;;;4.47;1.60;;;22.80;33.00;;;;;;4935542;29;20192;-73
2023/09/10 04:10:20;;;;;;;5.80;1.47;;;22.80;32.00;;;;;;4931862;29;20179;-74
2023/09/10 04:12:50;;;;;;;3.30;1.60;;;23.10;31.50;;;;;;4927162;29;20188;-72
2023/09/10 04:15:18;;;;;;;2.87;1.40;;;23.30;32.40;;;;;;4934113;29;20655;-73
2023/09/10 04:17:46;;;;;;;2.57;1.20;;;23.30;31.80;;;;;;4933446;29;20558;-73
2023/09/10 04:20:13;;;;;;;4.03;1.50;;;23.10;31.50;;;;;;4935544;29;20204;-74
2023/09/10 04:22:40;;;;;;;4.30;1.37;;;22.50;32.80;;;;;;4935818;29;20574;-72
2023/09/10 04:25:08;;;;;;;3.27;1.27;;;22.80;31.30;;;;;;4933078;29;20231;-73
2023/09/10 04:27:35;;;;;;;5.30;1.40;;;23.00;32.10;;;;;;4933030;29;20276;-74
2023/09/10 04:30:04;;;;;;;5.13;1.40;;;23.50;30.90;;;;;;4933844;29;20291;-73
2023/09/10 04:32:31;;;;;;;3.73;1.50;;;23.70;30.60;;;;;;4936004;29;20286;-73
2023/09/10 04:34:59;;;;;;;2.87;1.23;;;23.10;31.10;;;;;;4927408;29;20602;-74
2023/09/10 04:37:26;;;;;;;5.03;2.00;;;23.10;31.90;;;;;;4930762;29;20184;-74
2023/09/10 04:39:54;;;;;;;5.20;1.30;;;24.30;30.70;;;;;;4935494;29;20192;-74
2023/09/10 04:42:21;;;;;;;5.10;1.50;;;23.20;31.90;;;;;;4936104;29;20623;-73
2023/09/10 04:44:49;;;;;;;4.07;1.37;;;23.30;32.00;;;;;;4935695;29;20190;-73
2023/09/10 04:47:16;;;;;;;4.10;1.70;;;23.20;32.70;;;;;;4935326;29;20667;-75
2023/09/10 04:49:44;;;;;;;2.20;1.00;;;23.00;35.00;;;;;;4935243;29;20613;-73
2023/09/10 04:52:11;;;;;;;4.83;1.30;;;23.00;35.50;;;;;;4934309;29;20190;-73
2023/09/10 04:54:38;;;;;;;3.63;1.30;;;23.60;35.00;;;;;;4936338;29;20200;-74
2023/09/10 04:57:06;;;;;;;3.40;1.30;;;23.20;33.60;;;;;;4927362;29;20251;-72
2023/09/10 04:59:33;;;;;;;6.63;1.80;;;22.40;35.10;;;;;;4935188;29;20188;-73
2023/09/10 05:02:01;;;;;;;5.33;1.37;;;21.90;36.50;;;;;;4933146;29;20659;-73
2023/09/10 05:04:29;;;;;;;4.13;1.40;;;22.30;36.60;;;;;;4931719;29;20199;-73
2023/09/10 05:06:56;;;;;;;2.97;1.20;;;22.30;36.10;;;;;;4935496;29;20226;-73
2023/09/10 05:09:23;;;;;;;3.23;1.30;;;22.30;36.00;;;;;;4935125;29;20219;-72
2023/09/10 05:11:51;;;;;;;4.73;1.70;;;23.10;35.60;;;;;;4934472;29;20254;-76
2023/09/10 05:14:18;;;;;;;3.07;1.17;;;23.10;35.80;;;;;;4934637;29;20199;-73
2023/09/10 05:16:46;;;;;;;4.97;1.60;;;22.80;36.60;;;;;;4932659;29;20635;-73
2023/09/10 05:19:13;;;;;;;6.70;1.30;;;22.50;37.70;;;;;;4935605;29;20211;-72
2023/09/10 05:21:40;;;;;;;5.40;1.30;;;22.90;35.90;;;;;;4935162;29;20220;-71
2023/09/10 05:24:08;;;;;;;5.17;1.40;;;23.10;35.50;;;;;;4935786;29;20191;-73
2023/09/10 05:26:36;;;;;;;5.23;1.47;;;23.30;35.40;;;;;;4934668;29;20192;-73
2023/09/10 05:29:03;;;;;;;4.60;1.33;;;23.10;35.50;;;;;;4935603;29;20220;-73
2023/09/10 05:31:30;;;;;;;2.07;0.93;;;22.40;36.40;;;;;;4935112;29;20192;-73
2023/09/10 05:33:57;;;;;;;3.13;0.90;;;22.40;36.80;;;;;;4935499;29;20184;-73
2023/09/10 05:36:26;;;;;;;5.37;1.03;;;22.50;36.30;;;;;;4930318;29;20195;-72
2023/09/10 05:38:53;;;;;;;3.30;1.40;;;22.00;37.60;;;;;;4935219;29;20267;-71
2023/09/10 05:41:21;;;;;;;5.13;1.40;;;22.10;38.00;;;;;;4935284;29;20279;-72
2023/09/10 05:43:48;;;;;;;5.53;1.50;;;22.40;37.60;;;;;;4933925;29;20187;-73
2023/09/10 05:46:16;;;;;;;5.57;1.10;;;22.40;36.70;;;;;;4935319;29;20188;-72
2023/09/10 05:48:44;;;;;;;4.57;1.23;;;21.80;38.00;;;;;;4935311;29;20251;-73
2023/09/10 05:51:11;;;;;;;3.63;1.10;;;22.20;37.40;;;;;;4935094;29;20196;-72
2023/09/10 05:53:40;;;;;;;4.93;1.47;;;22.80;36.10;;;;;;4934408;29;20220;-72
2023/09/10 05:56:07;;;;;;;3.03;1.00;;;22.40;36.30;;;;;;4935082;29;20188;-73
2023/09/10 05:58:35;;;;;;;3.17;1.00;;;22.20;36.80;;;;;;4934028;29;20224;-73
2023/09/10 06:01:02;;;;;;;5.13;1.20;;;22.40;35.80;;;;;;4935239;29;20192;-72
2023/09/10 06:03:32;;;;;;;2.60;1.13;;;21.70;37.80;;;;;;4934081;29;20281;-72
2023/09/10 06:06:01;;;;;;;5.83;1.67;;;21.40;38.30;;;;;;4933518;29;20188;-74
2023/09/10 06:08:31;;;;;;;3.97;1.10;;;21.60;38.30;;;;;;4933953;29;20240;-70
2023/09/10 06:10:59;;;;;;;4.80;1.30;;;22.10;37.80;;;;;;4934463;29;20657;-74
2023/09/10 06:13:28;;;;;;;5.67;1.33;;;22.30;37.40;;;;;;4934530;29;20192;-73
2023/09/10 06:15:55;;;;;;;3.27;1.30;;;22.20;37.30;;;;;;4934382;29;20188;-73
2023/09/10 06:18:22;;;;;;;4.23;1.17;;;22.00;38.00;;;;;;4934398;29;20191;-72
2023/09/10 06:20:50;;;;;;;4.13;1.40;;;22.00;38.80;;;;;;4935189;29;20192;-74
2023/09/10 06:23:17;;;;;;;6.13;1.40;;;22.00;39.60;;;;;;4930872;29;20255;-72
2023/09/10 06:25:47;;;;;;;3.50;1.43;;;21.80;39.60;;;;;;4932392;29;20604;-72
2023/09/10 06:28:18;;;;;;;3.03;1.20;;;21.50;39.40;;;;;;4930931;29;20247;-72
2023/09/10 06:30:45;;;;;;;3.90;1.30;;;21.80;39.20;;;;;;4929128;29;20230;-73
2023/09/10 06:33:12;;;;;;;5.07;1.40;;;21.40;40.60;;;;;;4930936;29;21521;-74
2023/09/10 06:35:40;;;;;;;3.57;1.30;;;21.30;41.00;;;;;;4930793;29;20231;-74
2023/09/10 06:38:08;;;;;;;3.77;1.50;;;21.40;40.60;;;;;;4925532;29;20199;-73
2023/09/10 06:40:36;;;;;;;2.50;1.30;;;22.00;39.70;;;;;;4934299;29;20243;-73
2023/09/10 06:43:08;;;;;;;5.57;1.37;;;21.10;41.40;;;;;;4933923;29;20203;-72
2023/09/10 06:45:36;;;;;;;4.47;1.47;;;20.60;42.50;;;;;;4933076;29;20562;-74
2023/09/10 06:48:04;;;;;;;5.50;1.40;;;20.30;43.30;;;;;;4933786;29;20207;-72
2023/09/10 06:50:31;;;;;;;2.60;1.50;;;20.40;42.40;;;;;;4934073;29;20188;-74
2023/09/10 06:52:59;;;;;;;3.67;1.80;;;20.50;42.10;;;;;;4933834;29;20207;-73
2023/09/10 06:55:26;;;;;;;3.37;1.23;;;20.80;42.30;;;;;;4933885;29;20244;-72
2023/09/10 06:57:55;;;;;;;4.73;1.23;;;20.40;42.40;;;;;;4934076;29;20650;-73
2023/09/10 07:00:23;;;;;;;5.43;1.20;;;19.80;43.70;;;;;;4934142;29;20218;-74
2023/09/10 07:02:50;;;;;;;1.30;1.00;;;19.70;43.70;;;;;;4934179;29;20184;-73
2023/09/10 07:05:18;;;;;;;4.77;1.40;;;19.80;43.40;;;;;;4931956;29;20183;-74
2023/09/10 07:07:45;;;;;;;1.73;1.20;;;19.90;43.60;;;;;;4933846;29;20594;-74
2023/09/10 07:10:13;;;;;;;6.90;1.67;;;19.50;44.70;;;;;;4933721;29;20687;-74
2023/09/10 07:12:40;;;;;;;6.13;1.90;;;19.50;45.40;;;;;;4934157;29;20216;-74
2023/09/10 07:15:07;;;;;;;3.73;1.40;;;19.40;45.50;;;;;;4933966;29;20304;-74
2023/09/10 07:17:36;;;;;;;7.17;2.83;;;18.80;47.00;;;;;;4930712;29;20319;-73
2023/09/10 07:20:04;;;;;;;4.50;1.93;;;18.50;48.30;;;;;;4933158;29;20224;-74
2023/09/10 07:22:31;;;;;;;3.73;1.67;;;18.00;49.70;;;;;;4933985;29;20258;-72
2023/09/10 07:24:59;;;;;;;7.93;1.73;;;17.40;50.70;;;;;;4933402;29;20195;-73
2023/09/10 07:27:26;;;;;;;4.43;1.90;;;17.10;51.40;;;;;;4934019;29;20199;-73
2023/09/10 07:29:53;;;;;;;4.87;1.63;;;16.90;50.60;;;;;;4933308;29;20613;-73
2023/09/10 07:32:23;;;;;;;5.00;1.50;;;16.70;51.60;;;;;;4932554;29;20259;-73
2023/09/10 07:34:50;;;;;;;5.13;3.53;;;16.60;52.80;;;;;;4931462;29;20259;-73
2023/09/10 07:37:18;;;;;;;7.77;2.97;;;16.50;53.30;;;;;;4933344;29;20708;-73
2023/09/10 07:39:45;;;;;;;3.67;1.80;;;16.40;53.60;;;;;;4933272;29;20192;-73
2023/09/10 07:42:12;;;;;;;3.67;1.97;;;16.30;53.80;;;;;;4933675;29;20246;-73
2023/09/10 07:44:41;;;;;;;7.27;2.07;;;16.30;54.00;;;;;;4933465;29;20654;-74
2023/09/10 07:47:09;;;;;;;3.20;1.50;;;16.10;54.40;;;;;;4933328;29;20198;-73
2023/09/10 07:49:37;;;;;;;3.87;1.70;;;16.00;54.70;;;;;;4933791;29;20220;-73
2023/09/10 07:52:04;;;;;;;4.90;1.90;;;16.00;55.20;;;;;;4936446;29;20189;-74
2023/09/10 07:54:35;;;;;;;5.00;1.80;;;15.90;55.50;;;;;;4937105;29;20206;-75
2023/09/10 07:57:06;;;;;;;4.73;1.53;;;15.80;55.50;;;;;;4915253;29;20190;-74
2023/09/10 07:59:36;;;;;;;5.20;2.00;;;15.90;55.50;;;;;;4933104;29;20314;-74
2023/09/10 08:02:04;;;;;;;2.73;1.60;;;15.80;55.50;;;;;;4933063;29;20187;-72
2023/09/10 08:04:31;;;;;;;4.03;1.90;;;15.70;56.10;;;;;;4936892;29;20286;-73
2023/09/10 08:07:00;;;;;;;3.60;1.90;;;15.70;56.50;;;;;;4935427;29;20191;-74
2023/09/10 08:09:29;;;;;;;5.30;1.50;;;15.70;56.70;;;;;;4933722;29;20229;-73
2023/09/10 08:11:56;;;;;;;5.13;1.97;;;15.60;56.20;;;;;;4934184;29;20651;-74
2023/09/10 08:14:24;;;;;;;3.93;2.03;;;15.60;56.10;;;;;;4936569;29;20188;-74
2023/09/10 08:16:51;;;;;;;6.67;2.00;;;15.60;55.50;;;;;;4933094;29;20188;-74
2023/09/10 08:19:18;;;;;;;4.80;1.93;;;15.60;56.20;;;;;;4935352;29;20184;-73
2023/09/10 08:21:46;;;;;;;6.10;2.30;;;15.60;56.20;;;;;;4934551;29;20328;-74
2023/09/10 08:24:13;;;;;;;4.33;1.77;;;15.50;56.40;;;;;;4935545;29;20192;-74
2023/09/10 08:26:41;;;;;;;5.30;1.80;;;15.50;56.20;;;;;;4934608;29;20182;-75
2023/09/10 08:29:08;;;;;;;3.03;1.73;;;15.50;56.30;;;;;;4934850;29;20368;-74
2023/09/10 08:31:35;;;;;;;2.90;1.70;;;15.40;56.20;;;;;;4932982;29;20191;-74
2023/09/10 08:34:03;;;;;;;3.80;1.90;;;15.50;55.50;;;;;;4934079;29;20188;-74
2023/09/10 08:36:30;;;;;;;7.13;2.50;;;15.50;55.50;;;;;;4933506;29;20188;-74
2023/09/10 08:38:57;;;;;;;6.07;2.57;;;15.40;55.70;;;;;;4934721;29;20192;-75
2023/09/10 08:41:45;;;;;;;4.50;2.80;;;15.30;56.10;;;;;;4935821;29;20188;-74
2023/09/10 08:44:19;;;;;;;5.07;2.30;;;15.30;56.30;;;;;;4934982;29;20535;-73
2023/09/10 08:46:51;;;;;;;4.07;2.30;;;15.20;56.30;;;;;;4933828;29;20190;-73
2023/09/10 08:49:20;;;;;;;7.40;2.50;;;15.20;56.10;;;;;;4934775;29;20633;-72
2023/09/10 08:51:48;;;;;;;3.73;2.30;;;15.20;56.60;;;;;;4935739;29;20195;-74
2023/09/10 08:54:16;;;;;;;8.90;2.53;;;15.20;56.50;;;;;;4936236;29;20202;-74
2023/09/10 08:56:44;;;;;;;8.50;2.47;;;15.20;56.60;;;;;;4933590;29;20238;-74
2023/09/10 08:59:13;;;;;;;6.90;2.30;;;15.20;56.90;;;;;;4934686;29;20200;-74
2023/09/10 09:01:45;;;;;;;6.30;2.37;;;15.20;56.60;;;;;;4935035;29;20194;-71
2023/09/10 09:04:15;;;;;;;4.93;2.47;;;15.10;57.10;;;;;;4934570;29;20231;-74
2023/09/10 09:06:47;;;;;;;7.20;2.93;;;15.10;57.60;;;;;;4932847;29;20184;-73
2023/09/10 09:09:16;;;;;;;7.30;2.93;;;15.00;58.00;;;;;;4934362;29;20224;-74
2023/09/10 09:11:45;;;;;;;6.87;3.07;;;15.00;58.20;;;;;;4929675;29;20181;-73
2023/09/10 09:14:13;;;;;;;12.07;3.50;;;14.90;58.00;;;;;;4931250;29;20556;-74
2023/09/10 09:16:41;;;;;;;6.20;2.43;;;14.80;58.20;;;;;;4932059;29;20672;-73
2023/09/10 09:19:14;;;;;;;6.57;2.80;;;14.80;58.60;;;;;;4932805;29;20670;-74
2023/09/10 09:21:43;;;;;;;4.70;2.90;;;14.70;59.10;;;;;;4936107;29;20200;-74
2023/09/10 09:24:12;;;;;;;8.50;3.50;;;14.70;58.70;;;;;;4934148;29;20185;-75
2023/09/10 09:26:41;;;;;;;6.90;2.70;;;14.70;58.70;;;;;;4934710;29;20192;-74
2023/09/10 09:29:09;;;;;;;6.87;2.23;;;14.70;58.80;;;;;;4934165;29;20229;-74
2023/09/10 09:31:36;;;;;;;6.77;2.27;;;14.60;59.20;;;;;;4934948;29;20269;-75
2023/09/10 09:34:04;;;;;;;7.27;4.07;;;14.50;59.50;;;;;;4933690;29;20568;-73
2023/09/10 09:36:36;;;;;;;10.73;5.40;;;14.50;59.50;;;;;;4935111;29;20258;-73
2023/09/10 09:39:11;;;;;;;11.43;5.40;;;14.50;60.00;;;;;;4934177;29;20252;-73
2023/09/10 09:41:38;;;;;;;9.27;3.83;;;14.40;59.60;;;;;;4934514;29;20186;-75
2023/09/10 09:44:09;;;;;;;5.43;2.93;;;14.40;59.70;;;;;;4934386;29;20202;-73
2023/09/10 09:46:36;;;;;;;6.10;3.00;;;14.30;60.20;;;;;;4935329;29;20529;-73
2023/09/10 09:49:05;;;;;;;6.30;3.07;;;14.30;60.50;;;;;;4933979;29;20219;-73
2023/09/10 09:51:32;;;;;;;9.60;3.73;;;14.20;60.60;;;;;;4937145;29;20204;-73
2023/09/10 09:54:02;;;;;;;8.53;3.20;;;14.20;60.90;;;;;;4934959;29;20239;-75
2023/09/10 09:56:30;;;;;;;5.50;2.60;;;14.20;61.40;;;;;;4935470;29;20188;-74
2023/09/10 09:59:02;;;;;;;6.87;3.00;;;14.20;61.30;;;;;;4935102;29;20201;-74
2023/09/10 10:01:30;;;;;;;6.33;2.90;;;14.10;61.60;;;;;;4914743;29;20207;-75
2023/09/10 10:04:01;;;;;;;7.63;3.07;;;14.10;61.90;;;;;;4934117;29;20222;-74
2023/09/10 10:06:28;;;;;;;4.60;2.80;;;14.10;61.90;;;;;;4929890;29;20273;-74
2023/09/10 10:08:56;;;;;;;10.03;3.03;;;14.00;62.20;;;;;;4935084;29;20227;-74
2023/09/10 10:11:33;;;;;;;12.00;2.83;;;14.00;62.50;;;;;;4936274;29;20253;-75
2023/09/10 10:14:01;;;;;;;8.30;3.00;;;13.90;62.50;;;;;;4932918;29;20183;-76
2023/09/10 10:16:30;;;;;;;12.77;3.97;;;13.90;63.00;;;;;;4935319;29;20623;-76
2023/09/10 10:18:58;;;;;;;5.80;3.13;;;13.80;62.90;;;;;;4934779;29;20184;-75
2023/09/10 10:21:25;;;;;;;5.20;2.90;;;13.80;62.80;;;;;;4935899;29;20195;-76
2023/09/10 10:23:56;;;;;;;5.93;2.80;;;13.80;62.90;;;;;;4936671;29;20271;-74
2023/09/10 10:26:25;;;;;;;6.83;3.67;;;13.80;63.20;;;;;;4939672;29;20184;-77
2023/09/10 10:28:53;;;;;;;4.90;2.60;;;13.80;63.50;;;;;;4935189;29;20569;-78
2023/09/10 10:31:25;;;;;;;7.43;3.60;;;13.80;63.50;;;;;;4939290;29;20239;-76
2023/09/10 10:34:19;;;;;;;8.30;3.60;;;13.80;63.80;;;;;;4937103;29;20180;-75
2023/09/10 10:36:58;;;;;;;8.70;3.13;;;13.70;63.70;;;;;;4939201;29;20669;-75
2023/09/10 10:39:53;;;;;;;8.87;3.07;;;13.70;64.00;;;;;;4939859;29;20188;-76
2023/09/10 10:42:38;;;;;;;6.27;3.00;;;13.80;63.80;;;;;;4940998;29;20243;-77
2023/09/10 10:45:09;;;;;;;6.93;3.10;;;13.70;63.80;;;;;;4936785;29;20203;-77
2023/09/10 10:47:39;;;;;;;9.13;3.77;;;13.70;64.00;;;;;;4937338;29;20272;-73
2023/09/10 10:50:10;;;;;;;13.93;4.33;;;13.60;64.90;;;;;;4935307;29;20236;-78
2023/09/10 10:52:52;;;;;;;9.93;4.47;;;13.50;65.20;;;;;;4933829;29;20180;-77
2023/09/10 10:55:20;;;;;;;10.97;4.97;;;13.50;65.60;;;;;;4936480;29;20200;-78
2023/09/10 10:57:48;;;;;;;12.17;5.60;;;13.40;66.20;;;;;;4935364;29;20180;-78
2023/09/10 11:00:17;;;;;;;12.13;5.23;;;13.40;66.90;;;;;;4934542;29;20263;-75
2023/09/10 11:02:49;;;;;;;13.43;5.63;;;13.30;66.90;;;;;;4935603;29;20188;-73
2023/09/10 11:05:17;;;;;;;10.23;5.03;;;13.20;67.20;;;;;;4916845;29;20208;-77
2023/09/10 11:07:45;;;;;;;8.03;4.30;;;13.20;67.20;;;;;;4934924;29;20236;-78
2023/09/10 11:10:27;;;;;;;11.77;4.13;;;13.20;67.20;;;;;;4932781;29;20258;-76
2023/09/10 11:13:08;;;;;;;8.47;4.00;;;13.20;67.10;;;;;;4929553;29;20185;-75
2023/09/10 11:15:36;;;;;;;11.23;5.00;;;13.20;67.20;;;;;;4934073;29;20214;-77
2023/09/10 11:18:37;;;;;;;9.13;4.20;;;13.20;67.20;;;;;;4934314;29;20241;-77
2023/09/10 11:21:12;;;;;;;14.17;4.60;;;13.20;66.90;;;;;;4933480;29;20195;-76
2023/09/10 11:23:51;;;;;;;10.37;5.27;;;13.10;67.00;;;;;;4935153;29;20195;-75
2023/09/10 11:26:19;;;;;;;11.93;5.30;;;13.10;67.90;;;;;;4935529;29;20271;-76
2023/09/10 11:28:53;;;;;;;10.83;5.50;;;13.10;68.30;;;;;;4934040;29;20278;-75
2023/09/10 11:31:38;;;;;;;12.47;5.40;;;13.00;68.60;;;;;;4937195;29;20194;-77
2023/09/10 11:34:18;;;;;;;10.27;5.40;;;13.00;68.90;;;;;;4920014;29;20188;-75
2023/09/10 11:37:03;;;;;;;10.90;5.23;;;12.90;69.10;;;;;;4935871;29;20192;-77
2023/09/10 11:39:32;;;;;;;11.77;5.43;;;13.00;69.20;;;;;;4936666;29;20263;-76
2023/09/10 11:42:04;;;;;;;12.27;6.13;;;12.90;68.80;;;;;;4937572;29;21137;-75
2023/09/10 11:44:31;;;;;;;14.93;5.73;;;13.00;68.90;;;;;;4935114;29;20215;-75
2023/09/10 11:46:59;;;;;;;12.37;5.53;;;13.00;68.90;;;;;;4935064;29;20270;-75
2023/09/10 11:49:26;;;;;;;12.37;5.23;;;13.00;68.30;;;;;;4931416;29;20229;-77
2023/09/10 11:51:57;;;;;;;18.03;4.90;;;12.90;68.50;;;;;;4937130;29;20180;-75
2023/09/10 11:54:26;;;;;;;7.80;4.50;;;12.90;68.50;;;;;;4934426;29;20192;-77
2023/09/10 11:56:58;;;;;;;9.90;4.80;;;13.00;69.10;;;;;;4936283;29;20235;-76
2023/09/10 11:59:29;;;;;;;9.27;4.60;;;13.00;68.20;;;;;;4934721;29;20207;-76
2023/09/10 12:01:58;;;;;;;11.17;5.00;;;13.00;68.00;;;;;;4934212;29;20188;-78
2023/09/10 12:04:30;;;;;;;12.17;5.27;;;12.90;68.10;;;;;;4936114;29;20192;-77
2023/09/10 12:06:58;;;;;;;10.17;4.97;;;12.90;68.20;;;;;;4934964;29;20184;-77
2023/09/10 12:09:29;;;;;;;11.17;5.40;;;12.90;68.70;;;;;;4935696;29;20282;-77
2023/09/10 12:12:05;;;;;;;15.93;5.20;;;12.90;68.60;;;;;;4935504;29;20184;-77
2023/09/10 12:14:32;;;;;;;11.10;4.83;;;12.80;68.70;;;;;;4935862;29;20195;-77
2023/09/10 12:17:00;;;;;;;7.60;4.73;;;12.70;69.20;;;;;;4933704;29;20239;-79
2023/09/10 12:19:27;;;;;;;10.37;5.07;;;12.70;69.30;;;;;;4932866;29;20651;-75
2023/09/10 12:21:55;;;;;;;11.60;4.97;;;12.60;69.40;;;;;;4936238;29;20184;-78
2023/09/10 12:24:23;;;;;;;11.30;5.23;;;12.60;69.90;;;;;;4933921;29;20192;-75
2023/09/10 12:26:50;;;;;;;14.53;6.03;;;12.60;70.20;;;;;;4936036;29;20658;-78
2023/09/10 12:29:18;;;;;;;9.33;5.47;;;12.60;70.10;;;;;;4922996;29;20678;-78
2023/09/10 12:31:45;;;;;;;15.30;5.83;;;12.50;70.30;;;;;;4934102;29;20271;-76
2023/09/10 12:34:14;;;;;;;11.03;5.17;;;12.50;70.60;;;;;;4931055;29;20278;-78
2023/09/10 12:36:42;;;;;;;7.77;4.67;;;12.40;70.80;;;;;;4931960;29;20203;-76
2023/09/10 12:39:22;;;;;;;9.37;6.13;;;12.40;71.20;;;;;;4939421;29;20239;-77
2023/09/10 12:41:54;;;;;;;10.13;5.83;;;12.40;71.30;;;;;;4934116;29;20215;-77
2023/09/10 12:44:22;;;;;;;11.20;5.90;;;12.40;71.60;;;;;;4934302;29;20199;-77
2023/09/10 12:46:50;;;;;;;14.87;6.33;;;12.30;71.40;;;;;;4935464;29;20187;-75
2023/09/10 12:49:18;;;;;;;11.20;5.93;;;12.30;71.60;;;;;;4934122;29;20220;-78
2023/09/10 12:51:45;;;;;;;13.30;6.00;;;12.20;71.40;;;;;;4931922;29;20204;-77
2023/09/10 12:54:14;;;;;;;12.97;5.37;;;12.00;71.60;;;;;;4936137;29;20653;-78
2023/09/10 12:56:42;;;;;;;9.80;5.70;;;11.90;72.30;;;;;;4936360;29;20642;-76